Time;durP1;ratioP1;P1;durP2;ratioP2;P2;SDS_P1;SDS_P2;PMS_P1;PMS_P2;Temp;Humidity;BMP_temperature;BMP_pressure;BME280_temperature;BME280_humidity;BME280_pressure;Samples;Min_cycle;Max_cycle;Signal;HPM_P1;HPM_P2
2021/12/27 00:00:26;;;;;;;;;9.75;9.75;10.90;99.90;;;;;;5031783;28;11470;-51
2021/12/27 00:03:00;;;;;;;;;10.00;8.25;10.90;99.90;;;;;;5027540;28;11487;-50
2021/12/27 00:05:31;;;;;;;;;13.00;13.00;10.90;99.90;;;;;;5031273;28;11593;-53
2021/12/27 00:08:03;;;;;;;;;13.00;13.00;10.90;99.90;;;;;;5026133;28;11508;-53
2021/12/27 00:10:34;;;;;;;;;19.00;19.00;10.90;99.90;;;;;;5031219;28;11616;-52
2021/12/27 00:13:07;;;;;;;;;21.50;21.50;10.90;99.90;;;;;;5035362;28;11640;-50
2021/12/27 00:15:39;;;;;;;;;17.75;17.75;10.90;99.90;;;;;;5032733;28;11580;-48
2021/12/27 00:18:14;;;;;;;;;16.75;16.75;10.90;99.90;;;;;;5027361;28;11539;-50
2021/12/27 00:20:45;;;;;;;;;20.00;20.00;10.90;99.90;;;;;;5039586;28;11509;-50
2021/12/27 00:23:17;;;;;;;;;22.25;21.00;10.90;99.90;;;;;;5048738;28;11490;-51
2021/12/27 00:25:49;;;;;;;;;20.00;20.00;10.90;99.90;;;;;;5048447;28;11521;-51
2021/12/27 00:28:20;;;;;;;;;18.00;18.00;10.90;99.90;;;;;;5031074;28;11489;-51
2021/12/27 00:30:50;;;;;;;;;15.75;15.75;10.90;99.90;;;;;;5053731;28;11499;-51
2021/12/27 00:33:21;;;;;;;;;18.75;18.75;10.90;99.90;;;;;;5048424;28;11508;-52
2021/12/27 00:35:52;;;;;;;;;14.25;14.25;10.90;99.90;;;;;;5052563;28;11486;-46
2021/12/27 00:38:23;;;;;;;;;17.50;16.00;10.90;99.90;;;;;;5030845;28;11481;-49
2021/12/27 00:40:56;;;;;;;;;19.25;19.25;10.80;99.90;;;;;;5048314;28;11482;-52
2021/12/27 00:43:26;;;;;;;;;21.75;21.75;10.80;99.90;;;;;;5050647;28;11470;-49
2021/12/27 00:45:58;;;;;;;;;27.50;27.50;10.80;99.90;;;;;;5053005;28;11509;-52
2021/12/27 00:48:29;;;;;;;;;28.25;28.25;10.80;99.90;;;;;;5056004;28;11452;-53
2021/12/27 00:51:00;;;;;;;;;31.75;31.25;10.80;99.90;;;;;;5054472;28;11519;-51
2021/12/27 00:53:31;;;;;;;;;33.50;32.50;10.80;99.90;;;;;;5053052;28;11500;-50
2021/12/27 00:56:02;;;;;;;;;31.25;31.00;10.80;99.90;;;;;;5012601;28;11517;-50
2021/12/27 00:58:34;;;;;;;;;32.50;29.75;10.80;99.90;;;;;;5059223;28;12207;-50
2021/12/27 01:01:05;;;;;;;;;27.00;26.75;10.80;99.90;;;;;;5050472;28;11556;-51
2021/12/27 01:03:36;;;;;;;;;15.00;15.00;10.80;99.90;;;;;;5056018;28;11486;-47
2021/12/27 01:06:06;;;;;;;;;6.50;6.50;10.80;99.90;;;;;;5050001;28;11468;-51
2021/12/27 01:08:37;;;;;;;;;4.25;4.25;10.80;99.90;;;;;;5039271;28;11507;-50
2021/12/27 01:11:22;;;;;;;;;4.50;4.50;10.80;99.90;;;;;;5053057;28;11441;-52
2021/12/27 01:14:12;;;;;;;;;2.25;2.25;10.80;99.90;;;;;;5057910;28;11466;-50
2021/12/27 01:16:45;;;;;;;;;1.00;1.00;10.80;99.90;;;;;;5051419;28;11495;-53
2021/12/27 01:19:16;;;;;;;;;5.00;3.00;10.80;99.90;;;;;;5054051;28;11450;-53
2021/12/27 01:21:46;;;;;;;;;4.50;4.50;10.80;99.90;;;;;;5050414;28;12479;-52
2021/12/27 01:24:17;;;;;;;;;5.00;5.00;10.80;99.90;;;;;;5041123;28;11457;-49
2021/12/27 01:26:47;;;;;;;;;4.00;4.00;10.80;99.90;;;;;;5052029;28;11442;-52
2021/12/27 01:29:18;;;;;;;;;7.25;6.75;10.80;99.90;;;;;;5050760;28;12214;-48
2021/12/27 01:31:48;;;;;;;;;5.25;5.25;10.80;99.90;;;;;;5050679;28;11539;-51
2021/12/27 01:34:19;;;;;;;;;7.75;7.75;10.80;99.90;;;;;;5054993;28;11445;-50
2021/12/27 01:36:49;;;;;;;;;8.25;8.25;10.70;99.90;;;;;;5034469;28;11455;-52
2021/12/27 01:39:23;;;;;;;;;7.50;7.50;10.70;99.90;;;;;;5052335;28;11477;-51
2021/12/27 01:41:55;;;;;;;;;7.75;7.75;10.80;99.90;;;;;;5050993;28;15028;-52
2021/12/27 01:44:25;;;;;;;;;6.00;5.25;10.80;99.90;;;;;;5049230;28;11427;-51
2021/12/27 01:46:56;;;;;;;;;5.75;4.00;10.70;99.90;;;;;;5052043;28;11459;-49
2021/12/27 01:49:28;;;;;;;;;2.00;2.00;10.70;99.90;;;;;;5048243;28;12309;-53
2021/12/27 01:51:59;;;;;;;;;1.00;1.00;10.70;99.90;;;;;;5055658;28;12205;-53
2021/12/27 01:54:30;;;;;;;;;1.25;1.25;10.70;99.90;;;;;;5051243;28;11456;-53
2021/12/27 01:57:01;;;;;;;;;2.00;2.00;10.70;99.90;;;;;;5052448;28;11470;-52
2021/12/27 01:59:31;;;;;;;;;1.25;1.25;10.70;99.90;;;;;;5035364;28;12495;-49
2021/12/27 02:02:03;;;;;;;;;1.00;1.00;10.70;99.90;;;;;;5048893;28;12389;-51
2021/12/27 02:04:34;;;;;;;;;0.25;0.25;10.70;99.90;;;;;;5049343;28;11445;-51
2021/12/27 02:07:06;;;;;;;;;1.25;1.25;10.70;99.90;;;;;;5051782;28;11482;-52
2021/12/27 02:09:49;;;;;;;;;4.75;4.75;10.70;99.90;;;;;;5050455;28;12151;-51
2021/12/27 02:12:20;;;;;;;;;10.75;10.75;10.70;99.90;;;;;;5053686;28;11427;-50
2021/12/27 02:14:53;;;;;;;;;14.75;13.00;10.70;99.90;;;;;;5050974;28;11459;-51
2021/12/27 02:17:23;;;;;;;;;13.25;13.25;10.70;99.90;;;;;;5050545;28;11480;-48
2021/12/27 02:19:56;;;;;;;;;14.25;11.75;10.60;99.90;;;;;;5052649;28;11494;-52
2021/12/27 02:22:29;;;;;;;;;6.00;6.00;10.50;99.90;;;;;;5053675;28;11471;-52
2021/12/27 02:24:59;;;;;;;;;10.25;10.25;10.60;99.90;;;;;;5047568;28;11422;-50
2021/12/27 02:27:29;;;;;;;;;5.00;5.00;10.60;99.90;;;;;;5035047;28;11485;-51
2021/12/27 02:30:01;;;;;;;;;7.00;7.00;10.60;99.90;;;;;;5049213;28;11538;-53
2021/12/27 02:32:32;;;;;;;;;13.50;12.25;10.60;99.90;;;;;;5049050;28;11436;-51
2021/12/27 02:35:03;;;;;;;;;13.25;13.25;10.60;99.90;;;;;;5054934;28;11481;-52
2021/12/27 02:37:34;;;;;;;;;15.75;15.75;10.70;99.90;;;;;;5053136;28;11447;-50
2021/12/27 02:40:05;;;;;;;;;16.75;16.75;10.70;99.90;;;;;;5053232;28;11469;-48
2021/12/27 02:43:06;;;;;;;;;13.25;13.25;10.70;99.90;;;;;;5032619;28;12261;-48
2021/12/27 02:45:49;;;;;;;;;9.25;9.25;10.70;99.90;;;;;;5052614;28;11460;-50
2021/12/27 02:48:24;;;;;;;;;15.25;15.25;10.70;99.90;;;;;;5050561;28;11591;-51
2021/12/27 02:50:55;;;;;;;;;17.00;17.00;10.60;99.90;;;;;;5052187;28;11451;-51
2021/12/27 02:53:28;;;;;;;;;11.00;10.50;10.70;99.90;;;;;;5051486;28;11533;-47
2021/12/27 02:56:02;;;;;;;;;12.75;12.75;10.70;99.90;;;;;;5052342;28;11493;-49
2021/12/27 02:58:33;;;;;;;;;14.25;14.25;10.70;99.90;;;;;;5051484;28;11510;-50
2021/12/27 03:01:15;;;;;;;;;17.00;14.00;10.70;99.90;;;;;;5044430;28;11457;-50
2021/12/27 03:03:47;;;;;;;;;10.50;10.25;10.60;99.90;;;;;;5051000;28;11568;-52
2021/12/27 03:06:18;;;;;;;;;12.75;12.75;10.60;99.90;;;;;;5047372;28;11483;-50
2021/12/27 03:08:51;;;;;;;;;15.75;14.75;10.60;99.90;;;;;;5054379;28;11501;-51
2021/12/27 03:11:22;;;;;;;;;12.50;11.25;10.60;99.90;;;;;;5052480;28;11450;-52
2021/12/27 03:13:55;;;;;;;;;10.25;10.25;10.70;99.90;;;;;;5056787;28;11462;-52
2021/12/27 03:16:26;;;;;;;;;5.00;5.00;10.60;99.90;;;;;;5049068;28;11604;-50
2021/12/27 03:18:56;;;;;;;;;11.00;9.25;10.70;99.90;;;;;;5052731;28;11852;-50
2021/12/27 03:21:32;;;;;;;;;7.75;7.75;10.60;99.90;;;;;;5049883;28;11460;-47
2021/12/27 03:24:04;;;;;;;;;7.00;7.00;10.70;99.90;;;;;;5050627;28;11459;-49
2021/12/27 03:26:35;;;;;;;;;8.25;7.75;10.60;99.90;;;;;;5049320;28;11448;-51
2021/12/27 03:29:06;;;;;;;;;8.50;8.50;10.60;99.90;;;;;;5051695;28;12229;-49
2021/12/27 03:31:37;;;;;;;;;6.00;6.00;10.60;99.90;;;;;;5054409;28;11444;-52
2021/12/27 03:34:07;;;;;;;;;9.75;9.75;10.60;99.90;;;;;;5041637;28;11412;-54
2021/12/27 03:36:39;;;;;;;;;6.00;6.00;10.60;99.90;;;;;;5050284;28;11453;-49
2021/12/27 03:39:12;;;;;;;;;10.00;7.50;10.60;99.90;;;;;;5051429;28;11576;-54
2021/12/27 03:41:44;;;;;;;;;7.75;7.75;10.60;99.90;;;;;;5037813;28;11437;-53
2021/12/27 03:44:14;;;;;;;;;7.25;7.25;10.60;99.90;;;;;;5035862;28;11404;-50
2021/12/27 03:46:46;;;;;;;;;7.50;7.50;10.60;99.90;;;;;;5050395;28;11438;-53
2021/12/27 03:49:17;;;;;;;;;7.75;7.75;10.60;99.90;;;;;;5049488;28;11439;-52
2021/12/27 03:51:47;;;;;;;;;9.50;9.50;10.60;99.90;;;;;;5053434;28;11411;-53
2021/12/27 03:54:18;;;;;;;;;10.25;10.25;10.60;99.90;;;;;;5050265;28;11475;-51
2021/12/27 03:56:49;;;;;;;;;6.75;6.75;10.60;99.90;;;;;;5054113;28;12224;-51
2021/12/27 03:59:35;;;;;;;;;9.75;9.25;10.60;99.90;;;;;;5051923;28;11424;-52
2021/12/27 04:02:06;;;;;;;;;10.00;8.25;10.60;99.90;;;;;;5051125;28;11507;-52
2021/12/27 04:04:37;;;;;;;;;7.75;7.75;10.60;99.90;;;;;;5049064;28;11613;-51
2021/12/27 04:07:08;;;;;;;;;6.25;6.25;10.60;99.90;;;;;;5050492;28;11442;-48
2021/12/27 04:09:39;;;;;;;;;11.75;10.50;10.60;99.90;;;;;;5052045;28;11448;-48
2021/12/27 04:12:10;;;;;;;;;6.75;6.75;10.60;99.90;;;;;;5052431;28;11425;-47
2021/12/27 04:14:41;;;;;;;;;7.25;6.00;10.60;99.90;;;;;;5050823;28;12764;-50
2021/12/27 04:17:16;;;;;;;;;7.00;5.75;10.60;99.90;;;;;;5056492;28;11577;-49
2021/12/27 04:19:47;;;;;;;;;5.50;5.50;10.60;99.90;;;;;;5049965;28;11498;-53
2021/12/27 04:22:17;;;;;;;;;5.75;5.75;10.60;99.90;;;;;;5056150;28;11466;-54
2021/12/27 04:25:04;;;;;;;;;4.50;4.50;10.60;99.90;;;;;;5044199;28;11446;-52
2021/12/27 04:27:35;;;;;;;;;4.25;4.25;10.60;99.90;;;;;;5054234;28;11587;-52
2021/12/27 04:30:07;;;;;;;;;3.00;3.00;10.60;99.90;;;;;;5051518;28;11444;-52
2021/12/27 04:32:38;;;;;;;;;4.00;4.00;10.60;99.90;;;;;;5059018;28;11581;-53
2021/12/27 04:35:11;;;;;;;;;4.50;4.50;10.60;99.90;;;;;;5050379;28;11450;-52
2021/12/27 04:37:46;;;;;;;;;3.00;3.00;10.60;99.90;;;;;;5055147;28;11485;-53
2021/12/27 04:40:21;;;;;;;;;3.00;3.00;10.60;99.90;;;;;;5019611;28;11447;-51
2021/12/27 04:43:03;;;;;;;;;4.00;4.00;10.60;99.90;;;;;;5056332;28;11403;-50
2021/12/27 04:45:34;;;;;;;;;4.25;4.25;10.60;99.90;;;;;;5051397;28;11459;-54
2021/12/27 04:48:06;;;;;;;;;5.00;3.00;10.60;99.90;;;;;;5031255;28;11464;-54
2021/12/27 04:50:44;;;;;;;;;4.00;4.00;10.60;99.90;;;;;;5053975;28;11475;-53
2021/12/27 04:53:15;;;;;;;;;3.00;3.00;10.60;99.90;;;;;;5055715;28;11436;-53
2021/12/27 04:55:45;;;;;;;;;2.50;2.50;10.60;99.90;;;;;;5022788;28;11444;-52
2021/12/27 04:58:23;;;;;;;;;2.50;2.50;10.60;99.90;;;;;;5050617;28;11444;-50
2021/12/27 05:00:53;;;;;;;;;5.00;5.00;10.60;99.90;;;;;;5053298;28;11392;-50
2021/12/27 05:03:25;;;;;;;;;4.50;4.50;10.60;99.90;;;;;;5052231;28;11540;-52
2021/12/27 05:05:55;;;;;;;;;5.75;5.25;10.60;99.90;;;;;;5056383;28;12238;-52
2021/12/27 05:08:26;;;;;;;;;2.00;2.00;10.60;99.90;;;;;;5050110;28;12252;-50
2021/12/27 05:11:02;;;;;;;;;3.00;3.00;10.60;99.90;;;;;;5054872;28;12256;-52
2021/12/27 05:13:32;;;;;;;;;3.75;3.75;10.60;99.90;;;;;;5055997;28;12346;-53
2021/12/27 05:16:04;;;;;;;;;6.50;6.00;10.60;99.90;;;;;;5039447;28;11468;-52
2021/12/27 05:18:35;;;;;;;;;6.75;6.75;10.60;99.90;;;;;;5049592;28;11454;-50
2021/12/27 05:21:06;;;;;;;;;6.50;6.50;10.60;99.90;;;;;;5057108;28;11546;-52
2021/12/27 05:23:37;;;;;;;;;6.25;5.00;10.60;99.90;;;;;;5049499;28;11433;-50
2021/12/27 05:26:07;;;;;;;;;4.75;4.75;10.60;99.90;;;;;;5055900;28;11818;-50
2021/12/27 05:28:38;;;;;;;;;4.00;4.00;10.60;99.90;;;;;;5050605;28;11482;-51
2021/12/27 05:31:09;;;;;;;;;3.00;3.00;10.60;99.90;;;;;;5050014;28;11427;-52
2021/12/27 05:33:41;;;;;;;;;3.75;3.75;10.60;99.90;;;;;;5049776;28;11424;-52
2021/12/27 05:36:15;;;;;;;;;4.25;4.25;10.60;99.90;;;;;;5035597;28;11428;-51
2021/12/27 05:38:46;;;;;;;;;3.50;3.50;10.60;99.90;;;;;;5053150;28;11437;-53
2021/12/27 05:41:19;;;;;;;;;1.75;1.75;10.60;99.90;;;;;;5037256;28;11418;-51
2021/12/27 05:43:51;;;;;;;;;2.00;2.00;10.60;99.90;;;;;;5051596;28;11477;-49
2021/12/27 05:46:21;;;;;;;;;2.25;2.25;10.60;99.90;;;;;;5051492;28;12183;-51
2021/12/27 05:48:52;;;;;;;;;1.00;1.00;10.60;99.90;;;;;;5052816;28;13057;-51
2021/12/27 05:51:24;;;;;;;;;2.00;2.00;10.60;99.90;;;;;;5050331;28;11522;-52
2021/12/27 05:53:54;;;;;;;;;2.00;2.00;10.60;99.90;;;;;;5065669;28;11548;-52
2021/12/27 05:56:25;;;;;;;;;1.00;1.00;10.60;99.90;;;;;;5052439;28;12188;-52
2021/12/27 05:58:57;;;;;;;;;4.00;2.00;10.60;99.90;;;;;;5056316;28;11430;-50
2021/12/27 06:01:31;;;;;;;;;1.75;1.75;10.60;99.90;;;;;;5052419;28;12222;-51
2021/12/27 06:04:02;;;;;;;;;1.00;1.00;10.60;99.90;;;;;;5029905;28;11443;-51
2021/12/27 06:06:34;;;;;;;;;1.00;1.00;10.60;99.90;;;;;;5048391;28;11464;-53
2021/12/27 06:09:05;;;;;;;;;1.75;1.75;10.60;99.90;;;;;;5053984;28;11410;-51
2021/12/27 06:11:37;;;;;;;;;1.00;1.00;10.60;99.90;;;;;;5047312;28;11480;-57
2021/12/27 06:14:08;;;;;;;;;1.00;1.00;10.60;99.90;;;;;;5057390;28;12722;-50
2021/12/27 06:16:45;;;;;;;;;1.00;1.00;10.60;99.90;;;;;;5048993;28;11494;-49
2021/12/27 06:19:17;;;;;;;;;1.75;1.75;10.60;99.90;;;;;;5054925;28;11427;-50
2021/12/27 06:21:49;;;;;;;;;1.00;1.00;10.60;99.90;;;;;;5047272;28;11508;-49
2021/12/27 06:24:20;;;;;;;;;0.50;0.50;10.60;99.90;;;;;;5040120;28;12171;-52
2021/12/27 06:26:51;;;;;;;;;0.00;0.00;10.60;99.90;;;;;;5051432;28;12371;-50
2021/12/27 06:29:22;;;;;;;;;0.50;0.50;10.60;99.90;;;;;;5054641;28;11449;-51
2021/12/27 06:31:53;;;;;;;;;0.00;0.00;10.60;99.90;;;;;;5052311;28;11461;-51
2021/12/27 06:34:24;;;;;;;;;1.00;1.00;10.60;99.90;;;;;;5037486;28;11462;-52
2021/12/27 06:36:56;;;;;;;;;1.00;1.00;10.60;99.90;;;;;;5046868;28;11413;-50
2021/12/27 06:39:26;;;;;;;;;0.00;0.00;10.60;99.90;;;;;;5053372;28;11437;-51
2021/12/27 06:41:58;;;;;;;;;2.00;1.00;10.60;99.90;;;;;;5041794;28;11479;-52
2021/12/27 06:44:28;;;;;;;;;0.25;0.25;10.60;99.90;;;;;;5048433;28;11419;-51
2021/12/27 06:47:00;;;;;;;;;1.00;1.00;10.60;99.90;;;;;;5053731;28;11428;-53
2021/12/27 06:49:32;;;;;;;;;0.75;0.75;10.60;99.90;;;;;;5050086;28;11470;-52
2021/12/27 06:52:04;;;;;;;;;0.25;0.25;10.60;99.90;;;;;;5052697;28;11423;-48
2021/12/27 06:54:37;;;;;;;;;1.00;1.00;10.60;99.90;;;;;;5046225;28;11577;-50
2021/12/27 06:57:08;;;;;;;;;1.00;1.00;10.60;99.90;;;;;;5053727;28;11493;-52
2021/12/27 06:59:42;;;;;;;;;0.75;0.75;10.60;99.90;;;;;;5050436;28;11430;-51
2021/12/27 07:02:14;;;;;;;;;1.00;1.00;10.60;99.90;;;;;;5054202;28;11574;-50
2021/12/27 07:04:45;;;;;;;;;2.25;1.00;10.60;99.90;;;;;;5052120;28;12400;-52
2021/12/27 07:07:16;;;;;;;;;0.50;0.50;10.60;99.90;;;;;;5049564;28;11452;-50
2021/12/27 07:09:48;;;;;;;;;1.00;1.00;10.60;99.90;;;;;;5047228;28;11584;-53
2021/12/27 07:12:19;;;;;;;;;0.00;0.00;10.60;99.90;;;;;;5052873;28;11460;-53
2021/12/27 07:14:50;;;;;;;;;0.00;0.00;10.60;99.90;;;;;;5049529;28;11570;-52
2021/12/27 07:17:20;;;;;;;;;0.00;0.00;10.60;99.90;;;;;;5051676;28;11415;-52
2021/12/27 07:19:50;;;;;;;;;0.00;0.00;10.60;99.90;;;;;;5050021;28;11474;-50
2021/12/27 07:22:20;;;;;;;;;0.00;0.00;10.60;99.90;;;;;;5050321;28;11524;-51
2021/12/27 07:24:54;;;;;;;;;0.00;0.00;10.60;99.90;;;;;;5048159;28;11441;-53
2021/12/27 07:27:23;;;;;;;;;0.00;0.00;10.60;99.90;;;;;;5047403;28;11428;-50
2021/12/27 07:29:54;;;;;;;;;0.00;0.00;10.60;99.90;;;;;;5034245;28;11486;-50
2021/12/27 07:32:25;;;;;;;;;0.00;0.00;10.60;99.90;;;;;;5052117;28;11418;-50
2021/12/27 07:34:56;;;;;;;;;0.00;0.00;10.60;99.90;;;;;;5053603;28;12192;-52
2021/12/27 07:37:27;;;;;;;;;0.00;0.00;10.60;99.90;;;;;;5048666;28;12184;-50
2021/12/27 07:39:57;;;;;;;;;0.00;0.00;10.60;99.90;;;;;;5054440;28;11595;-51
2021/12/27 07:42:28;;;;;;;;;0.00;0.00;10.60;99.90;;;;;;5047212;28;11408;-52
2021/12/27 07:44:59;;;;;;;;;1.00;1.00;10.60;99.90;;;;;;5055084;28;11422;-49
2021/12/27 07:47:29;;;;;;;;;0.50;0.50;10.60;99.90;;;;;;5049719;28;11481;-49
2021/12/27 07:49:59;;;;;;;;;1.00;1.00;10.60;99.90;;;;;;5049751;28;11439;-51
2021/12/27 07:52:30;;;;;;;;;0.25;0.25;10.60;99.90;;;;;;5050228;28;11425;-50
2021/12/27 07:55:07;;;;;;;;;0.50;0.50;10.60;99.90;;;;;;5050070;28;12161;-50
2021/12/27 07:57:38;;;;;;;;;1.00;1.00;10.60;99.90;;;;;;5049608;28;11438;-50
2021/12/27 08:00:10;;;;;;;;;0.00;0.00;10.60;99.90;;;;;;5049444;28;11425;-48
2021/12/27 08:02:40;;;;;;;;;0.00;0.00;10.60;99.90;;;;;;5058528;28;11426;-51
2021/12/27 08:05:11;;;;;;;;;0.00;0.00;10.60;99.90;;;;;;5052454;28;12163;-48
2021/12/27 08:07:43;;;;;;;;;1.00;1.00;10.50;99.90;;;;;;5034304;28;11457;-53
2021/12/27 08:10:15;;;;;;;;;0.00;0.00;10.60;99.90;;;;;;5053895;28;11463;-53
2021/12/27 08:12:46;;;;;;;;;0.00;0.00;10.50;99.90;;;;;;5056532;28;11441;-52
2021/12/27 08:15:17;;;;;;;;;0.00;0.00;10.60;99.90;;;;;;5048605;28;11410;-55
2021/12/27 08:17:48;;;;;;;;;0.00;0.00;10.60;99.90;;;;;;5055065;28;11486;-50
2021/12/27 08:20:18;;;;;;;;;0.00;0.00;10.60;99.90;;;;;;5044588;28;11416;-52
2021/12/27 08:22:50;;;;;;;;;0.00;0.00;10.60;99.90;;;;;;5035374;28;12176;-50
2021/12/27 08:25:20;;;;;;;;;0.00;0.00;10.50;99.90;;;;;;5050467;28;11488;-51
2021/12/27 08:27:51;;;;;;;;;0.00;0.00;10.60;99.90;;;;;;5056403;28;11422;-48
2021/12/27 08:30:22;;;;;;;;;0.00;0.00;10.50;99.90;;;;;;5046146;28;11466;-52
2021/12/27 08:32:54;;;;;;;;;0.00;0.00;10.60;99.90;;;;;;5053339;28;11418;-52
2021/12/27 08:35:24;;;;;;;;;0.00;0.00;10.50;99.90;;;;;;5032199;28;12180;-50
2021/12/27 08:37:55;;;;;;;;;0.00;0.00;10.50;99.90;;;;;;5050688;28;11454;-51
2021/12/27 08:40:26;;;;;;;;;0.00;0.00;10.50;99.90;;;;;;5050143;28;11561;-51
2021/12/27 08:42:57;;;;;;;;;0.00;0.00;10.50;99.90;;;;;;5037877;28;12115;-52
2021/12/27 08:45:28;;;;;;;;;0.00;0.00;10.60;99.90;;;;;;5049789;28;11462;-51
2021/12/27 08:48:00;;;;;;;;;0.00;0.00;10.50;99.90;;;;;;5045654;28;11420;-53
2021/12/27 08:50:33;;;;;;;;;0.00;0.00;10.50;99.90;;;;;;5050970;28;11488;-52
2021/12/27 08:53:03;;;;;;;;;0.00;0.00;10.50;99.90;;;;;;5047319;28;11454;-51
2021/12/27 08:55:35;;;;;;;;;0.00;0.00;10.50;99.90;;;;;;5057610;28;12194;-50
2021/12/27 08:58:06;;;;;;;;;0.00;0.00;10.50;99.90;;;;;;5047271;28;11453;-50
2021/12/27 09:00:36;;;;;;;;;0.00;0.00;10.50;99.90;;;;;;5053197;28;11422;-50
2021/12/27 09:03:07;;;;;;;;;0.00;0.00;10.60;99.90;;;;;;5036988;28;12576;-52
2021/12/27 09:05:42;;;;;;;;;0.00;0.00;10.50;99.90;;;;;;5059261;28;11410;-51
2021/12/27 09:08:15;;;;;;;;;0.00;0.00;10.50;99.90;;;;;;5034471;28;11529;-51
2021/12/27 09:10:48;;;;;;;;;0.00;0.00;10.50;99.90;;;;;;5056644;28;11494;-52
2021/12/27 09:13:19;;;;;;;;;0.00;0.00;10.50;99.90;;;;;;5054977;28;11433;-52
2021/12/27 09:15:49;;;;;;;;;0.00;0.00;10.50;99.90;;;;;;5061544;28;11380;-52
2021/12/27 09:18:20;;;;;;;;;0.00;0.00;10.50;99.90;;;;;;5057558;28;11458;-51
2021/12/27 09:20:52;;;;;;;;;1.00;0.00;10.50;99.90;;;;;;5052669;28;12229;-50
2021/12/27 09:23:22;;;;;;;;;0.00;0.00;10.50;99.90;;;;;;5052579;28;11453;-53
2021/12/27 09:25:57;;;;;;;;;0.00;0.00;10.50;99.90;;;;;;5057429;28;11435;-51
2021/12/27 09:28:29;;;;;;;;;0.00;0.00;10.50;99.90;;;;;;5051127;28;11590;-49
2021/12/27 09:31:00;;;;;;;;;0.00;0.00;10.50;99.90;;;;;;5047611;28;11466;-52
2021/12/27 09:33:31;;;;;;;;;0.00;0.00;10.50;99.90;;;;;;5036445;28;11500;-53
2021/12/27 09:36:02;;;;;;;;;0.00;0.00;10.50;99.90;;;;;;5057059;28;11457;-51
2021/12/27 09:38:34;;;;;;;;;0.00;0.00;10.50;99.90;;;;;;5048085;28;12624;-49
2021/12/27 09:41:04;;;;;;;;;0.00;0.00;10.50;99.90;;;;;;5050052;28;11645;-52
2021/12/27 09:43:37;;;;;;;;;1.00;0.00;10.50;99.90;;;;;;5049475;28;11458;-54
2021/12/27 09:46:07;;;;;;;;;0.00;0.00;10.50;99.90;;;;;;5056796;28;11499;-49
2021/12/27 09:48:42;;;;;;;;;0.00;0.00;10.50;99.90;;;;;;5037479;28;11528;-48
2021/12/27 09:51:16;;;;;;;;;0.00;0.00;10.50;99.90;;;;;;5031599;28;11483;-48
2021/12/27 09:53:48;;;;;;;;;0.00;0.00;10.50;99.90;;;;;;5055512;28;11477;-49
2021/12/27 09:56:19;;;;;;;;;0.00;0.00;10.50;99.90;;;;;;5053043;28;11482;-49
2021/12/27 09:58:50;;;;;;;;;0.00;0.00;10.50;99.90;;;;;;5056016;28;11901;-50
2021/12/27 10:01:20;;;;;;;;;2.00;2.00;10.50;99.90;;;;;;5054390;28;11523;-56
2021/12/27 10:03:58;;;;;;;;;1.25;1.25;10.50;99.90;;;;;;5057420;28;11547;-49
2021/12/27 10:06:30;;;;;;;;;0.25;0.25;10.50;99.90;;;;;;5052743;28;11452;-51
2021/12/27 10:09:07;;;;;;;;;0.00;0.00;10.50;99.90;;;;;;5051895;28;11442;-50
2021/12/27 10:11:43;;;;;;;;;0.00;0.00;10.50;99.90;;;;;;5053926;28;11523;-52
2021/12/27 10:14:14;;;;;;;;;1.00;1.00;10.50;99.90;;;;;;5051944;28;11841;-51
2021/12/27 10:17:06;;;;;;;;;0.00;0.00;10.50;99.90;;;;;;5046830;28;11432;-51
2021/12/27 10:19:37;;;;;;;;;0.00;0.00;10.50;99.90;;;;;;5055858;28;11468;-51
2021/12/27 10:22:15;;;;;;;;;0.00;0.00;10.50;99.90;;;;;;5046848;28;11422;-51
2021/12/27 10:24:51;;;;;;;;;0.00;0.00;10.50;99.90;;;;;;5053861;28;11582;-51
2021/12/27 10:27:24;;;;;;;;;0.00;0.00;10.50;99.90;;;;;;5032809;28;11460;-50
2021/12/27 10:29:54;;;;;;;;;0.00;0.00;10.50;99.90;;;;;;5052702;28;12277;-50
2021/12/27 10:32:24;;;;;;;;;0.00;0.00;10.50;99.90;;;;;;5038629;28;11433;-51
2021/12/27 10:34:55;;;;;;;;;0.25;0.25;10.50;99.90;;;;;;5050922;28;11409;-52
2021/12/27 10:37:46;;;;;;;;;1.25;1.25;10.50;99.90;;;;;;5051982;28;11423;-48
2021/12/27 10:40:18;;;;;;;;;0.00;0.00;10.50;99.90;;;;;;5048188;28;11438;-49
2021/12/27 10:42:50;;;;;;;;;0.00;0.00;10.50;99.90;;;;;;5054756;28;11419;-52
2021/12/27 10:45:24;;;;;;;;;0.00;0.00;10.50;99.90;;;;;;5050632;28;11443;-52
2021/12/27 10:47:57;;;;;;;;;0.25;0.25;10.50;99.90;;;;;;5031230;28;12186;-51
2021/12/27 10:50:31;;;;;;;;;0.00;0.00;10.50;99.90;;;;;;5049397;28;11612;-52
2021/12/27 10:53:05;;;;;;;;;1.00;0.00;10.50;99.90;;;;;;5034378;28;11464;-52
2021/12/27 10:55:42;;;;;;;;;0.00;0.00;10.40;99.90;;;;;;5055103;28;11431;-51
2021/12/27 10:58:25;;;;;;;;;0.00;0.00;10.50;99.90;;;;;;5048949;28;11448;-53
2021/12/27 11:01:23;;;;;;;;;0.00;0.00;10.50;99.90;;;;;;5052448;28;11478;-51
2021/12/27 11:03:57;;;;;;;;;0.00;0.00;10.40;99.90;;;;;;5036579;28;11417;-48
2021/12/27 11:06:36;;;;;;;;;0.00;0.00;10.40;99.90;;;;;;5051828;28;12415;-51
2021/12/27 11:09:06;;;;;;;;;0.00;0.00;10.40;99.90;;;;;;5055400;28;11460;-50
2021/12/27 11:11:38;;;;;;;;;0.00;0.00;10.40;99.90;;;;;;5048693;28;11422;-52
2021/12/27 11:14:09;;;;;;;;;0.00;0.00;10.40;99.90;;;;;;5051873;28;11465;-50
2021/12/27 11:16:40;;;;;;;;;0.00;0.00;10.40;99.90;;;;;;5044469;28;11421;-52
2021/12/27 11:19:10;;;;;;;;;0.00;0.00;10.40;99.90;;;;;;5036661;28;11664;-53
2021/12/27 11:21:44;;;;;;;;;0.00;0.00;10.40;99.90;;;;;;5047718;28;11446;-51
2021/12/27 11:24:16;;;;;;;;;0.00;0.00;10.40;99.90;;;;;;5052795;28;11458;-48
2021/12/27 11:26:47;;;;;;;;;0.00;0.00;10.40;99.90;;;;;;5046276;28;11408;-52
2021/12/27 11:29:22;;;;;;;;;0.00;0.00;10.40;99.90;;;;;;5053160;28;11397;-52
2021/12/27 11:32:16;;;;;;;;;0.00;0.00;10.40;99.90;;;;;;5051440;28;11452;-53
2021/12/27 11:35:04;;;;;;;;;0.00;0.00;10.40;99.90;;;;;;5047203;28;11445;-50
2021/12/27 11:37:40;;;;;;;;;0.00;0.00;10.40;99.90;;;;;;5048800;28;11402;-50
2021/12/27 11:40:15;;;;;;;;;0.00;0.00;10.40;99.90;;;;;;5028158;28;11530;-51
2021/12/27 11:42:59;;;;;;;;;0.00;0.00;10.40;99.90;;;;;;5057552;28;12246;-48
2021/12/27 11:46:09;;;;;;;;;0.00;0.00;10.40;99.90;;;;;;5056293;28;11394;-51
2021/12/27 11:48:51;;;;;;;;;0.00;0.00;10.40;99.90;;;;;;4935776;28;11526;-49
2021/12/27 11:51:40;;;;;;;;;0.00;0.00;10.40;99.90;;;;;;4947992;28;11513;-52
2021/12/27 11:54:30;;;;;;;;;0.00;0.00;10.40;99.90;;;;;;5025332;28;11420;-50
2021/12/27 11:57:01;;;;;;;;;0.00;0.00;10.40;99.90;;;;;;5039793;28;11399;-51
2021/12/27 11:59:37;;;;;;;;;1.00;0.00;10.40;99.90;;;;;;5047992;28;11448;-52
2021/12/27 12:02:16;;;;;;;;;0.00;0.00;10.40;99.90;;;;;;5051649;28;11427;-52
2021/12/27 12:04:50;;;;;;;;;0.00;0.00;10.40;99.90;;;;;;5049595;28;11456;-50
2021/12/27 12:07:35;;;;;;;;;0.00;0.00;10.40;99.90;;;;;;5046629;28;11439;-52
2021/12/27 12:10:14;;;;;;;;;0.00;0.00;10.40;99.90;;;;;;5049461;28;11473;-50
2021/12/27 12:13:41;;;;;;;;;0.00;0.00;10.40;99.90;;;;;;5050532;28;11375;-51
2021/12/27 12:16:20;;;;;;;;;1.75;0.00;10.40;99.90;;;;;;4986642;28;11462;-47
2021/12/27 12:18:52;;;;;;;;;0.00;0.00;10.40;99.90;;;;;;5047405;28;11436;-51
2021/12/27 12:21:34;;;;;;;;;1.00;1.00;10.40;99.90;;;;;;5038581;28;11506;-51
2021/12/27 12:24:15;;;;;;;;;0.00;0.00;10.40;99.90;;;;;;5034255;28;11447;-52
2021/12/27 12:27:00;;;;;;;;;0.00;0.00;10.40;99.90;;;;;;5027415;28;12811;-50
2021/12/27 12:29:44;;;;;;;;;0.00;0.00;10.40;99.90;;;;;;5031067;28;11487;-53
2021/12/27 12:32:17;;;;;;;;;0.00;0.00;10.40;99.90;;;;;;5025093;28;12515;-53
2021/12/27 12:34:48;;;;;;;;;0.00;0.00;10.40;99.90;;;;;;5028715;28;12268;-53
2021/12/27 12:37:19;;;;;;;;;0.00;0.00;10.40;99.90;;;;;;5024708;28;11432;-51
2021/12/27 12:39:51;;;;;;;;;0.00;0.00;10.30;99.90;;;;;;5033504;28;11612;-48
2021/12/27 12:42:28;;;;;;;;;0.00;0.00;10.30;99.90;;;;;;5032865;28;11555;-49
2021/12/27 12:45:06;;;;;;;;;0.00;0.00;10.30;99.90;;;;;;5032039;28;11493;-51
2021/12/27 12:47:44;;;;;;;;;0.00;0.00;10.40;99.90;;;;;;5032871;28;11572;-52
2021/12/27 12:50:21;;;;;;;;;0.00;0.00;10.40;99.90;;;;;;5018377;28;12251;-51
2021/12/27 12:52:55;;;;;;;;;0.00;0.00;10.40;99.90;;;;;;5012711;28;12483;-50
2021/12/27 12:55:28;;;;;;;;;0.00;0.00;10.40;99.90;;;;;;5035368;28;11521;-48
2021/12/27 12:57:59;;;;;;;;;0.00;0.00;10.40;99.90;;;;;;5013453;28;11490;-51
2021/12/27 13:00:36;;;;;;;;;0.00;0.00;10.40;99.90;;;;;;5038169;28;12266;-52
2021/12/27 13:03:12;;;;;;;;;0.00;0.00;10.40;99.90;;;;;;5031492;28;11538;-51
2021/12/27 13:05:42;;;;;;;;;0.00;0.00;10.40;99.90;;;;;;5034632;28;11530;-48
2021/12/27 13:08:16;;;;;;;;;0.00;0.00;10.40;99.90;;;;;;5031097;28;11542;-50
2021/12/27 13:10:47;;;;;;;;;2.00;0.00;10.40;99.90;;;;;;5036664;28;11493;-53
2021/12/27 13:13:19;;;;;;;;;0.00;0.00;10.40;99.90;;;;;;5030371;28;11490;-50